Time;durP1;ratioP1;P1;durP2;ratioP2;P2;SDS_P1;SDS_P2;PMS_P1;PMS_P2;Temp;Humidity;BMP_temperature;BMP_pressure;BME280_temperature;BME280_humidity;BME280_pressure;Samples;Min_cycle;Max_cycle;Signal;HPM_P1;HPM_P2
2021/12/25 00:02:08;;;;;;;4.90;2.03;;;;;;;;;;5101936;28;20177;-45
2021/12/25 00:04:35;;;;;;;2.80;1.60;;;;;;;;;;5091194;28;20212;-45
2021/12/25 00:07:01;;;;;;;2.95;1.70;;;;;;;;;;5089916;28;20190;-45
2021/12/25 00:09:27;;;;;;;4.38;1.85;;;;;;;;;;5090002;28;20266;-45
2021/12/25 00:11:53;;;;;;;2.45;1.70;;;;;;;;;;5086360;28;20552;-45
2021/12/25 00:14:22;;;;;;;3.75;1.80;;;;;;;;;;5104440;28;20188;-45
2021/12/25 00:16:48;;;;;;;2.65;1.88;;;;;;;;;;5098239;28;20170;-45
2021/12/25 00:19:14;;;;;;;2.95;1.65;;;;;;;;;;5089421;28;20192;-45
2021/12/25 00:21:40;;;;;;;3.58;1.98;;;;;;;;;;5069690;28;20451;-45
2021/12/25 00:24:06;;;;;;;2.92;1.73;;;;;;;;;;5103664;28;20181;-45
2021/12/25 00:26:50;;;;;;;4.30;1.60;;;;;;;;;;5073299;28;20178;-45
2021/12/25 00:34:41;;;;;;;2.65;1.73;;;;;;;;;;5088533;28;20208;-45
2021/12/25 00:37:07;;;;;;;2.70;1.30;;;;;;;;;;5095085;28;20182;-45
2021/12/25 00:39:33;;;;;;;2.92;1.50;;;;;;;;;;5099737;28;20193;-45
2021/12/25 00:42:00;;;;;;;1.92;1.48;;;;;;;;;;5101661;28;20227;-45
2021/12/25 00:44:27;;;;;;;2.03;1.48;;;;;;;;;;5089798;28;20197;-45
2021/12/25 00:46:53;;;;;;;2.15;1.50;;;;;;;;;;5091144;28;20204;-45
2021/12/25 00:49:19;;;;;;;2.17;1.70;;;;;;;;;;5089488;28;20242;-45
2021/12/25 00:51:45;;;;;;;2.00;1.30;;;;;;;;;;5094582;28;20209;-45
2021/12/25 00:54:12;;;;;;;2.75;1.52;;;;;;;;;;5091654;28;20225;-45
2021/12/25 00:56:38;;;;;;;2.08;1.27;;;;;;;;;;5093457;28;20516;-45
2021/12/25 00:59:04;;;;;;;1.35;1.20;;;;;;;;;;5088360;28;20447;-45
2021/12/25 01:01:30;;;;;;;2.40;1.30;;;;;;;;;;5093476;28;20192;-45
2021/12/25 01:03:56;;;;;;;2.50;1.63;;;;;;;;;;5094020;28;20189;-45
2021/12/25 01:06:22;;;;;;;1.77;1.15;;;;;;;;;;5093919;28;20307;-45
2021/12/25 01:08:48;;;;;;;1.42;1.33;;;;;;;;;;5093099;28;20189;-45
2021/12/25 01:11:14;;;;;;;2.50;1.50;;;;;;;;;;5093941;28;20186;-45
2021/12/25 01:13:47;;;;;;;2.30;1.35;;;;;;;;;;5093821;28;20186;-45
2021/12/25 01:16:54;;;;;;;1.88;1.33;;;;;;;;;;5092539;28;20536;-45
2021/12/25 01:29:46;;;;;;;1.75;1.20;;;;;;;;;;5085635;28;20275;-45
2021/12/25 01:48:18;;;;;;;1.67;1.05;;;;;;;;;;5087785;28;20569;-45
2021/12/25 01:50:44;;;;;;;1.63;1.10;;;;;;;;;;5093976;28;20213;-45
2021/12/25 01:53:10;;;;;;;1.73;1.00;;;;;;;;;;5092921;28;20193;-45
2021/12/25 01:55:36;;;;;;;1.27;0.98;;;;;;;;;;5091633;28;20178;-45
2021/12/25 01:58:03;;;;;;;1.60;1.00;;;;;;;;;;5092387;28;20192;-45
2021/12/25 02:00:29;;;;;;;1.25;1.15;;;;;;;;;;5090314;28;20181;-45
2021/12/25 02:02:56;;;;;;;0.80;0.80;;;;;;;;;;5091498;28;20189;-45
2021/12/25 02:05:22;;;;;;;1.25;1.00;;;;;;;;;;5094119;28;20189;-45
2021/12/25 02:07:48;;;;;;;1.70;1.10;;;;;;;;;;5091982;28;20223;-46
2021/12/25 02:10:15;;;;;;;0.90;0.90;;;;;;;;;;5092304;28;20445;-45
2021/12/25 02:12:41;;;;;;;1.85;1.15;;;;;;;;;;5091868;28;20431;-45
2021/12/25 02:15:13;;;;;;;0.80;0.80;;;;;;;;;;5089695;28;20204;-45
2021/12/25 02:20:34;;;;;;;1.38;1.20;;;;;;;;;;5091181;28;20569;-45
2021/12/25 02:23:03;;;;;;;1.10;0.80;;;;;;;;;;5092864;28;20224;-45
2021/12/25 02:25:32;;;;;;;1.33;1.05;;;;;;;;;;5084729;28;20193;-45
2021/12/25 02:27:59;;;;;;;1.67;0.93;;;;;;;;;;5091657;28;20186;-45
2021/12/25 02:30:25;;;;;;;1.13;1.13;;;;;;;;;;5092129;28;20205;-45
2021/12/25 02:32:51;;;;;;;1.55;0.60;;;;;;;;;;5093047;28;20235;-45
2021/12/25 02:35:17;;;;;;;0.82;0.82;;;;;;;;;;5091764;28;20542;-45
2021/12/25 02:37:44;;;;;;;1.35;1.10;;;;;;;;;;5090435;28;20223;-45
2021/12/25 02:40:11;;;;;;;0.70;0.70;;;;;;;;;;5089305;28;20265;-45
2021/12/25 02:42:37;;;;;;;1.02;0.88;;;;;;;;;;5092174;28;20279;-45
2021/12/25 02:45:04;;;;;;;1.08;0.98;;;;;;;;;;5089976;28;20202;-45
2021/12/25 02:47:31;;;;;;;1.05;0.95;;;;;;;;;;5103256;28;20189;-45
2021/12/25 02:49:57;;;;;;;1.10;1.08;;;;;;;;;;5110813;28;20224;-45
2021/12/25 02:52:23;;;;;;;1.00;0.90;;;;;;;;;;5111428;28;20233;-45
2021/12/25 02:54:49;;;;;;;0.68;0.68;;;;;;;;;;5109194;28;20329;-45
2021/12/25 02:57:16;;;;;;;2.05;0.70;;;;;;;;;;5111709;28;20192;-45
2021/12/25 02:59:42;;;;;;;0.70;0.70;;;;;;;;;;5109664;28;20209;-45
2021/12/25 03:02:10;;;;;;;0.90;0.60;;;;;;;;;;5111258;28;20561;-45
2021/12/25 03:04:41;;;;;;;0.93;0.68;;;;;;;;;;5113195;28;20181;-45
2021/12/25 03:07:07;;;;;;;0.98;0.80;;;;;;;;;;5112553;28;20664;-45
2021/12/25 03:09:33;;;;;;;0.60;0.60;;;;;;;;;;5111411;28;20212;-45
2021/12/25 03:12:00;;;;;;;0.77;0.77;;;;;;;;;;5112477;28;20641;-45
2021/12/25 03:14:36;;;;;;;0.90;0.88;;;;;;;;;;5109287;28;20229;-45
2021/12/25 03:17:03;;;;;;;0.60;0.60;;;;;;;;;;5107921;28;20176;-45
2021/12/25 03:19:33;;;;;;;0.77;0.77;;;;;;;;;;5110356;28;20696;-45
2021/12/25 03:22:00;;;;;;;0.80;0.80;;;;;;;;;;5112454;28;20226;-45
2021/12/25 03:24:27;;;;;;;0.70;0.70;;;;;;;;;;5110952;28;20192;-45
2021/12/25 03:26:55;;;;;;;1.10;0.73;;;;;;;;;;5111767;28;20181;-45
2021/12/25 03:29:22;;;;;;;0.60;0.60;;;;;;;;;;5111365;28;20196;-45
2021/12/25 03:31:49;;;;;;;0.68;0.68;;;;;;;;;;5111236;28;20181;-45
2021/12/25 03:34:15;;;;;;;0.70;0.70;;;;;;;;;;5111222;28;20176;-45
2021/12/25 03:36:41;;;;;;;0.60;0.57;;;;;;;;;;5112125;28;20568;-45
2021/12/25 03:39:07;;;;;;;0.60;0.60;;;;;;;;;;5112163;28;20234;-45
2021/12/25 03:41:33;;;;;;;0.90;0.70;;;;;;;;;;5110137;28;20185;-45
2021/12/25 03:44:00;;;;;;;0.60;0.60;;;;;;;;;;5111945;28;20223;-45
2021/12/25 03:46:29;;;;;;;0.68;0.68;;;;;;;;;;5106093;28;20190;-45
2021/12/25 03:59:18;;;;;;;0.73;0.73;;;;;;;;;;5091079;28;20223;-45
2021/12/25 04:06:52;;;;;;;0.70;0.70;;;;;;;;;;5093714;28;20209;-45
2021/12/25 04:09:29;;;;;;;0.77;0.60;;;;;;;;;;5092817;28;20201;-45
2021/12/25 04:11:58;;;;;;;0.73;0.70;;;;;;;;;;5090591;28;20189;-45
2021/12/25 04:14:24;;;;;;;0.70;0.70;;;;;;;;;;5093290;28;20265;-45
2021/12/25 04:16:50;;;;;;;0.55;0.55;;;;;;;;;;5091733;28;20182;-45
2021/12/25 04:19:16;;;;;;;0.50;0.50;;;;;;;;;;5086383;28;20186;-45
2021/12/25 04:21:52;;;;;;;0.60;0.60;;;;;;;;;;5085699;28;20186;-45
2021/12/25 04:24:18;;;;;;;0.60;0.40;;;;;;;;;;5094476;28;20293;-45
2021/12/25 04:26:46;;;;;;;0.50;0.50;;;;;;;;;;5087318;28;20189;-45
2021/12/25 04:29:34;;;;;;;0.45;0.45;;;;;;;;;;5091736;28;20599;-45
2021/12/25 04:32:35;;;;;;;0.60;0.60;;;;;;;;;;5092918;28;20196;-45
2021/12/25 05:05:36;;;;;;;0.40;0.40;;;;;;;;;;5066331;28;20183;-45
2021/12/25 05:08:02;;;;;;;0.73;0.50;;;;;;;;;;5110737;28;20177;-45
2021/12/25 05:10:28;;;;;;;1.65;0.40;;;;;;;;;;5113396;28;20231;-45
2021/12/25 05:12:54;;;;;;;1.80;0.60;;;;;;;;;;5114489;28;20175;-45
2021/12/25 05:15:20;;;;;;;0.52;0.45;;;;;;;;;;5114433;27;20193;-45
2021/12/25 05:17:46;;;;;;;0.45;0.30;;;;;;;;;;5112558;28;20208;-45
2021/12/25 05:20:12;;;;;;;0.60;0.60;;;;;;;;;;5106684;28;22092;-45
2021/12/25 05:22:38;;;;;;;0.30;0.28;;;;;;;;;;5108832;28;20177;-45
2021/12/25 05:25:04;;;;;;;0.57;0.30;;;;;;;;;;5096248;28;20185;-45
2021/12/25 05:27:30;;;;;;;1.25;0.68;;;;;;;;;;5112580;28;20189;-45
2021/12/25 05:29:56;;;;;;;1.45;0.77;;;;;;;;;;5114096;28;20680;-45
2021/12/25 05:32:22;;;;;;;0.65;0.65;;;;;;;;;;5113381;28;20185;-45
2021/12/25 05:34:48;;;;;;;0.93;0.60;;;;;;;;;;5113472;28;20555;-45
2021/12/25 05:37:15;;;;;;;0.82;0.70;;;;;;;;;;5112352;28;20218;-45
2021/12/25 05:39:43;;;;;;;3.72;0.80;;;;;;;;;;5114925;28;20181;-45
2021/12/25 05:42:09;;;;;;;2.70;1.70;;;;;;;;;;5110910;28;20177;-45
2021/12/25 05:44:35;;;;;;;2.13;1.70;;;;;;;;;;5112826;28;20188;-45
2021/12/25 05:47:01;;;;;;;2.85;1.75;;;;;;;;;;5103237;28;20308;-45
2021/12/25 05:49:27;;;;;;;2.83;1.83;;;;;;;;;;5092231;28;20347;-45
2021/12/25 05:51:53;;;;;;;4.75;2.05;;;;;;;;;;5091358;28;20189;-45
2021/12/25 05:54:19;;;;;;;1.90;1.80;;;;;;;;;;5093098;28;20197;-45
2021/12/25 05:56:45;;;;;;;3.08;2.00;;;;;;;;;;5091159;28;20187;-45
2021/12/25 05:59:11;;;;;;;4.18;2.28;;;;;;;;;;5093142;28;20194;-45
2021/12/25 06:01:37;;;;;;;3.58;1.80;;;;;;;;;;5092160;28;20190;-45
2021/12/25 06:04:03;;;;;;;2.95;1.95;;;;;;;;;;5091646;28;20264;-45
2021/12/25 06:06:29;;;;;;;3.92;1.92;;;;;;;;;;5091400;28;20212;-45
2021/12/25 06:08:55;;;;;;;2.85;2.10;;;;;;;;;;5091371;28;20209;-45
2021/12/25 06:11:23;;;;;;;3.70;2.03;;;;;;;;;;5091202;28;20186;-45
2021/12/25 06:13:58;;;;;;;2.92;2.30;;;;;;;;;;5092957;28;20603;-45
2021/12/25 06:16:23;;;;;;;2.58;2.10;;;;;;;;;;5088217;28;20210;-45
2021/12/25 06:18:49;;;;;;;4.97;2.15;;;;;;;;;;5089802;28;20190;-45
2021/12/25 06:21:15;;;;;;;2.53;1.92;;;;;;;;;;5092109;28;20191;-45
2021/12/25 06:23:41;;;;;;;22.02;16.45;;;;;;;;;;5092317;28;20243;-45
2021/12/25 06:26:07;;;;;;;144.05;109.70;;;;;;;;;;5089308;28;20174;-45
2021/12/25 06:28:33;;;;;;;799.63;708.45;;;;;;;;;;5093019;28;20186;-45
2021/12/25 06:30:59;;;;;;;285.17;233.48;;;;;;;;;;5091402;28;20209;-45
2021/12/25 06:33:25;;;;;;;729.67;639.47;;;;;;;;;;5092456;28;20278;-46
2021/12/25 06:35:51;;;;;;;1390.05;826.35;;;;;;;;;;5090637;28;20635;-45
2021/12/25 06:38:17;;;;;;;756.83;516.78;;;;;;;;;;5090871;28;20182;-45
2021/12/25 06:40:43;;;;;;;441.55;276.13;;;;;;;;;;5088854;28;20185;-45
2021/12/25 06:43:09;;;;;;;426.35;278.83;;;;;;;;;;5089461;28;20232;-45
2021/12/25 06:45:35;;;;;;;389.65;247.23;;;;;;;;;;5087558;28;20293;-45
2021/12/25 06:48:01;;;;;;;340.30;217.80;;;;;;;;;;5090283;28;20221;-45
2021/12/25 06:50:27;;;;;;;294.40;185.52;;;;;;;;;;5099192;28;20267;-45
2021/12/25 06:52:55;;;;;;;262.63;161.43;;;;;;;;;;5079015;28;20248;-45
2021/12/25 06:55:22;;;;;;;217.57;135.38;;;;;;;;;;5091140;28;20204;-45
2021/12/25 06:57:55;;;;;;;195.80;122.55;;;;;;;;;;5091694;28;20189;-46
2021/12/25 07:00:23;;;;;;;182.90;110.97;;;;;;;;;;5097454;28;20193;-46
2021/12/25 07:02:49;;;;;;;158.52;95.78;;;;;;;;;;5084604;28;20182;-46
2021/12/25 07:05:15;;;;;;;136.35;84.03;;;;;;;;;;5081634;28;20214;-45
2021/12/25 07:07:43;;;;;;;123.25;73.40;;;;;;;;;;5094241;28;20251;-45
2021/12/25 07:10:09;;;;;;;101.53;61.53;;;;;;;;;;5093887;28;20201;-49
2021/12/25 07:12:37;;;;;;;92.35;56.50;;;;;;;;;;5090553;28;20181;-50
2021/12/25 07:15:04;;;;;;;90.47;52.30;;;;;;;;;;5096565;28;20170;-49
2021/12/25 07:17:30;;;;;;;86.00;50.00;;;;;;;;;;5092850;28;20181;-49
2021/12/25 07:19:56;;;;;;;70.63;44.53;;;;;;;;;;5098434;28;20434;-49
2021/12/25 07:22:22;;;;;;;71.90;42.38;;;;;;;;;;5094422;28;20239;-50
2021/12/25 07:24:48;;;;;;;68.47;40.25;;;;;;;;;;5109247;28;20174;-50
2021/12/25 07:27:14;;;;;;;58.17;36.88;;;;;;;;;;5091558;28;20223;-50
2021/12/25 07:29:40;;;;;;;55.83;34.80;;;;;;;;;;5098428;28;20205;-50
2021/12/25 07:32:07;;;;;;;49.75;33.20;;;;;;;;;;5090144;28;20545;-49
2021/12/25 07:34:33;;;;;;;46.30;29.02;;;;;;;;;;5100077;28;20552;-50
2021/12/25 07:37:00;;;;;;;47.20;29.83;;;;;;;;;;5095659;28;20172;-51
2021/12/25 07:39:26;;;;;;;64.25;35.33;;;;;;;;;;5107391;28;20422;-50
2021/12/25 07:41:52;;;;;;;55.47;33.33;;;;;;;;;;5100346;28;20624;-49
2021/12/25 07:44:18;;;;;;;58.67;33.05;;;;;;;;;;5101668;28;20272;-49
2021/12/25 07:46:45;;;;;;;53.33;31.30;;;;;;;;;;5087831;28;20198;-50
2021/12/25 07:49:20;;;;;;;76.38;38.80;;;;;;;;;;5092767;28;20209;-49
2021/12/25 07:51:47;;;;;;;81.18;41.47;;;;;;;;;;5095557;28;20177;-50
2021/12/25 07:54:13;;;;;;;74.75;39.55;;;;;;;;;;5095875;28;20276;-50
2021/12/25 07:56:39;;;;;;;77.90;40.13;;;;;;;;;;5092725;28;20537;-51
2021/12/25 07:59:05;;;;;;;83.25;42.90;;;;;;;;;;5089382;28;20169;-50
2021/12/25 08:01:34;;;;;;;102.72;48.55;;;;;;;;;;5095585;28;20224;-51
2021/12/25 08:04:00;;;;;;;110.25;52.30;;;;;;;;;;5094835;28;20204;-50
2021/12/25 08:06:26;;;;;;;102.80;49.95;;;;;;;;;;5093592;28;20583;-50
2021/12/25 08:08:55;;;;;;;95.30;44.33;;;;;;;;;;5089198;28;20177;-49
2021/12/25 08:11:21;;;;;;;122.32;53.78;;;;;;;;;;5094138;28;20205;-49
2021/12/25 08:13:47;;;;;;;185.15;83.50;;;;;;;;;;5094456;28;20206;-50
2021/12/25 08:16:13;;;;;;;168.45;78.25;;;;;;;;;;5095582;28;20830;-48
2021/12/25 08:18:39;;;;;;;174.48;76.85;;;;;;;;;;5095240;28;20174;-50
2021/12/25 08:21:06;;;;;;;175.10;79.80;;;;;;;;;;5091507;28;20183;-49
2021/12/25 08:23:35;;;;;;;157.52;68.22;;;;;;;;;;5094135;28;20185;-50
2021/12/25 08:26:02;;;;;;;151.95;68.43;;;;;;;;;;5095376;28;20182;-49
2021/12/25 08:28:28;;;;;;;121.53;53.58;;;;;;;;;;5092782;28;20235;-49
2021/12/25 08:30:54;;;;;;;111.15;49.13;;;;;;;;;;5092931;28;20209;-50
2021/12/25 08:33:20;;;;;;;106.32;50.42;;;;;;;;;;5094067;28;20193;-49
2021/12/25 08:35:46;;;;;;;98.47;46.55;;;;;;;;;;5094430;28;20181;-49
2021/12/25 08:38:13;;;;;;;84.05;39.17;;;;;;;;;;5095527;28;20188;-49
2021/12/25 08:40:39;;;;;;;83.38;38.65;;;;;;;;;;5092548;28;20345;-50
2021/12/25 08:43:06;;;;;;;72.10;36.28;;;;;;;;;;5094098;28;20182;-49
2021/12/25 08:45:46;;;;;;;65.88;34.35;;;;;;;;;;5093038;28;20291;-50
2021/12/25 08:48:12;;;;;;;67.28;32.72;;;;;;;;;;5093537;28;20242;-50
2021/12/25 08:50:39;;;;;;;55.17;27.77;;;;;;;;;;5093052;28;20331;-50
2021/12/25 08:53:05;;;;;;;53.78;26.63;;;;;;;;;;5094858;28;20293;-50
2021/12/25 08:55:31;;;;;;;63.75;31.23;;;;;;;;;;5093271;28;20204;-50
2021/12/25 08:57:57;;;;;;;63.03;29.23;;;;;;;;;;5094305;28;20177;-50
2021/12/25 09:00:23;;;;;;;66.05;29.10;;;;;;;;;;5093303;28;20197;-50
2021/12/25 09:02:51;;;;;;;67.03;27.73;;;;;;;;;;5092752;28;20184;-50
2021/12/25 09:05:17;;;;;;;58.60;26.88;;;;;;;;;;5094936;28;20601;-50
2021/12/25 09:07:43;;;;;;;49.47;25.02;;;;;;;;;;5093985;28;20264;-50
2021/12/25 09:10:09;;;;;;;50.33;24.10;;;;;;;;;;5092378;28;20206;-50
2021/12/25 09:12:40;;;;;;;48.42;23.25;;;;;;;;;;5093971;28;20208;-50
2021/12/25 09:15:06;;;;;;;47.10;22.58;;;;;;;;;;5091603;28;20182;-50
2021/12/25 09:17:32;;;;;;;44.20;21.33;;;;;;;;;;5092757;28;20961;-50
2021/12/25 09:19:58;;;;;;;42.28;19.58;;;;;;;;;;5093920;28;20192;-49
2021/12/25 09:22:24;;;;;;;42.97;20.52;;;;;;;;;;5091585;28;20223;-50
2021/12/25 09:24:50;;;;;;;33.53;17.98;;;;;;;;;;5092950;28;20194;-50
2021/12/25 09:27:16;;;;;;;38.63;18.05;;;;;;;;;;5093563;28;20196;-50
2021/12/25 09:29:42;;;;;;;35.70;17.85;;;;;;;;;;5094180;28;20256;-50
2021/12/25 09:32:09;;;;;;;36.25;18.90;;;;;;;;;;5090256;28;20186;-50
2021/12/25 09:34:35;;;;;;;37.58;17.63;;;;;;;;;;5094252;28;20188;-50
2021/12/25 09:37:01;;;;;;;32.55;14.95;;;;;;;;;;5094181;28;20190;-50
2021/12/25 09:39:27;;;;;;;30.65;15.63;;;;;;;;;;5090604;28;20185;-50
2021/12/25 09:41:53;;;;;;;26.10;14.30;;;;;;;;;;5094087;28;20182;-50
2021/12/25 09:44:19;;;;;;;28.70;15.27;;;;;;;;;;5093107;28;20551;-49
2021/12/25 09:46:45;;;;;;;27.27;14.25;;;;;;;;;;5090352;28;20189;-50
2021/12/25 09:49:11;;;;;;;30.00;13.27;;;;;;;;;;5091935;28;20194;-50
2021/12/25 09:51:38;;;;;;;23.65;13.25;;;;;;;;;;5091522;28;20462;-50
2021/12/25 09:54:06;;;;;;;26.55;13.68;;;;;;;;;;5093467;28;20236;-50
2021/12/25 09:56:34;;;;;;;26.27;12.80;;;;;;;;;;5092719;28;20251;-49
2021/12/25 09:59:00;;;;;;;22.48;12.77;;;;;;;;;;5092953;28;20189;-50
2021/12/25 10:01:34;;;;;;;21.48;11.77;;;;;;;;;;5091923;28;20219;-50
2021/12/25 10:04:00;;;;;;;22.70;12.05;;;;;;;;;;5090165;28;20188;-50
2021/12/25 10:06:44;;;;;;;21.40;10.85;;;;;;;;;;5092931;28;20275;-50
2021/12/25 10:09:12;;;;;;;24.27;11.77;;;;;;;;;;5089387;28;20243;-50
2021/12/25 10:11:38;;;;;;;21.13;10.80;;;;;;;;;;5091509;28;20178;-50
2021/12/25 10:14:03;;;;;;;18.80;9.50;;;;;;;;;;5092755;28;20259;-50
2021/12/25 10:16:32;;;;;;;17.00;9.70;;;;;;;;;;5090640;28;20218;-50
2021/12/25 10:19:18;;;;;;;18.98;9.60;;;;;;;;;;5090517;28;20418;-50
2021/12/25 10:21:44;;;;;;;18.85;9.10;;;;;;;;;;5073699;28;20288;-50
2021/12/25 10:24:15;;;;;;;19.77;9.00;;;;;;;;;;5091956;28;20497;-50
2021/12/25 10:26:43;;;;;;;18.90;9.23;;;;;;;;;;5081261;28;20182;-50
2021/12/25 10:29:16;;;;;;;16.52;9.00;;;;;;;;;;5090701;28;20173;-50
2021/12/25 10:31:42;;;;;;;14.07;8.68;;;;;;;;;;5090758;28;20186;-50
2021/12/25 10:34:19;;;;;;;16.15;9.07;;;;;;;;;;5072135;28;20272;-50
2021/12/25 10:36:45;;;;;;;15.93;8.05;;;;;;;;;;5091014;28;20647;-50
2021/12/25 10:39:13;;;;;;;12.50;7.53;;;;;;;;;;5092682;28;20247;-49
2021/12/25 10:41:41;;;;;;;18.08;7.97;;;;;;;;;;5091519;28;20184;-50
2021/12/25 10:44:10;;;;;;;13.27;7.57;;;;;;;;;;5091105;28;20180;-49
2021/12/25 10:46:56;;;;;;;12.85;7.57;;;;;;;;;;5091184;28;20583;-50
2021/12/25 10:49:23;;;;;;;13.20;6.72;;;;;;;;;;5085928;28;20476;-49
2021/12/25 10:51:49;;;;;;;13.73;6.47;;;;;;;;;;5087563;28;20265;-49
2021/12/25 10:54:17;;;;;;;13.38;7.13;;;;;;;;;;5098538;28;20277;-50
2021/12/25 10:56:44;;;;;;;12.65;6.68;;;;;;;;;;5101572;28;20169;-49
2021/12/25 10:59:14;;;;;;;11.43;6.22;;;;;;;;;;5090327;28;20413;-50
2021/12/25 11:01:42;;;;;;;9.25;5.32;;;;;;;;;;5100131;28;20526;-50
2021/12/25 11:04:25;;;;;;;9.70;4.40;;;;;;;;;;5092682;28;20170;-49
2021/12/25 11:06:51;;;;;;;10.43;4.97;;;;;;;;;;5091036;28;20177;-50
2021/12/25 11:09:17;;;;;;;6.85;3.92;;;;;;;;;;5092684;28;20246;-50
2021/12/25 11:11:43;;;;;;;6.15;3.88;;;;;;;;;;5094837;28;20184;-50
2021/12/25 11:14:13;;;;;;;6.78;3.30;;;;;;;;;;5092770;28;20177;-50
2021/12/25 11:16:40;;;;;;;8.77;4.53;;;;;;;;;;5096086;28;20201;-50
2021/12/25 11:19:10;;;;;;;10.27;5.03;;;;;;;;;;5108115;28;20173;-50
2021/12/25 11:21:45;;;;;;;13.02;5.07;;;;;;;;;;5099220;28;20211;-50
2021/12/25 11:24:19;;;;;;;10.07;4.68;;;;;;;;;;5086825;28;20455;-50
2021/12/25 11:26:46;;;;;;;8.98;4.40;;;;;;;;;;5092945;28;20204;-50
2021/12/25 11:29:14;;;;;;;9.10;4.22;;;;;;;;;;5090648;28;20455;-50
2021/12/25 11:31:41;;;;;;;10.23;4.28;;;;;;;;;;5091294;28;20192;-50
2021/12/25 11:34:07;;;;;;;9.05;4.20;;;;;;;;;;5096642;28;20205;-50
2021/12/25 11:36:37;;;;;;;7.00;3.70;;;;;;;;;;5098494;28;20193;-49
2021/12/25 11:39:03;;;;;;;10.50;4.82;;;;;;;;;;5099454;28;20177;-50
2021/12/25 11:41:34;;;;;;;14.10;4.55;;;;;;;;;;5086515;28;20201;-50
2021/12/25 11:44:05;;;;;;;8.82;4.00;;;;;;;;;;5091440;28;20227;-50
2021/12/25 11:46:44;;;;;;;12.48;5.20;;;;;;;;;;5083520;28;20185;-50
2021/12/25 11:49:17;;;;;;;17.92;6.40;;;;;;;;;;5084021;28;20200;-50
2021/12/25 11:51:45;;;;;;;22.50;6.53;;;;;;;;;;5091574;28;20177;-50
2021/12/25 11:54:40;;;;;;;14.00;5.82;;;;;;;;;;5091430;28;20178;-50
2021/12/25 11:58:00;;;;;;;15.77;6.32;;;;;;;;;;5085211;28;20205;-50
2021/12/25 11:59:53;;;;;;;12.45;5.28;;;;;;;;;;5078644;28;20194;-50
2021/12/25 12:02:39;;;;;;;16.88;6.28;;;;;;;;;;5091017;28;20186;-50
2021/12/25 12:05:25;;;;;;;15.05;5.72;;;;;;;;;;5091106;28;20272;-49
2021/12/25 12:08:10;;;;;;;15.23;5.25;;;;;;;;;;5086357;28;20217;-50
2021/12/25 12:10:45;;;;;;;13.82;5.63;;;;;;;;;;5072651;28;20489;-50
2021/12/25 12:13:22;;;;;;;21.88;7.30;;;;;;;;;;5089910;28;20231;-50
2021/12/25 12:15:50;;;;;;;31.02;10.80;;;;;;;;;;5072434;28;20193;-50
2021/12/25 12:18:30;;;;;;;31.45;13.88;;;;;;;;;;5086264;28;20185;-50
2021/12/25 12:21:01;;;;;;;42.88;14.55;;;;;;;;;;5095585;28;20181;-50
2021/12/25 12:23:40;;;;;;;42.92;16.73;;;;;;;;;;5094514;28;20194;-50
2021/12/25 12:26:10;;;;;;;37.17;14.65;;;;;;;;;;5091978;28;20235;-50
2021/12/25 12:28:43;;;;;;;33.42;13.82;;;;;;;;;;5094316;28;20209;-50
2021/12/25 12:31:29;;;;;;;36.50;14.05;;;;;;;;;;5089979;28;20777;-50
2021/12/25 12:33:55;;;;;;;34.97;14.15;;;;;;;;;;5091341;28;20329;-50
2021/12/25 12:36:22;;;;;;;37.92;12.23;;;;;;;;;;5094224;28;20452;-50
2021/12/25 12:38:53;;;;;;;27.42;12.25;;;;;;;;;;5094382;28;20185;-50
2021/12/25 12:41:34;;;;;;;34.40;13.38;;;;;;;;;;5096000;28;20193;-49
2021/12/25 12:44:03;;;;;;;31.40;12.73;;;;;;;;;;5092039;28;20201;-50
2021/12/25 12:46:48;;;;;;;35.50;12.45;;;;;;;;;;5097955;28;20220;-50
2021/12/25 12:49:16;;;;;;;24.35;11.68;;;;;;;;;;5112210;28;20188;-50
2021/12/25 12:51:42;;;;;;;30.85;11.45;;;;;;;;;;5114407;28;20222;-50
2021/12/25 12:54:08;;;;;;;24.95;10.50;;;;;;;;;;5113746;28;20234;-50
2021/12/25 12:56:36;;;;;;;24.58;11.13;;;;;;;;;;5113077;28;20233;-50
2021/12/25 12:59:03;;;;;;;30.48;11.15;;;;;;;;;;5107705;28;20207;-50
2021/12/25 13:01:29;;;;;;;25.63;10.40;;;;;;;;;;5115462;28;20203;-50
2021/12/25 13:03:57;;;;;;;25.08;10.85;;;;;;;;;;5115030;28;20268;-49
2021/12/25 13:06:25;;;;;;;25.73;10.18;;;;;;;;;;5114048;28;20185;-50
2021/12/25 13:08:52;;;;;;;23.45;9.85;;;;;;;;;;5113543;28;20724;-50
2021/12/25 13:11:25;;;;;;;22.33;10.20;;;;;;;;;;5114976;28;20516;-50
2021/12/25 13:13:54;;;;;;;23.75;10.20;;;;;;;;;;5114933;28;20177;-49
2021/12/25 13:16:22;;;;;;;20.13;9.25;;;;;;;;;;5109992;27;20181;-50
2021/12/25 13:18:53;;;;;;;19.95;9.02;;;;;;;;;;5112090;28;20184;-50
2021/12/25 13:21:26;;;;;;;19.58;8.77;;;;;;;;;;5108873;28;20184;-50
2021/12/25 13:23:55;;;;;;;15.82;7.45;;;;;;;;;;5114677;28;20180;-50
2021/12/25 13:26:23;;;;;;;18.17;8.25;;;;;;;;;;5113656;28;20619;-50
2021/12/25 13:28:50;;;;;;;15.10;8.40;;;;;;;;;;5114653;28;20595;-50
2021/12/25 13:31:18;;;;;;;15.48;8.35;;;;;;;;;;5094574;28;20234;-49
2021/12/25 13:34:15;;;;;;;16.08;7.55;;;;;;;;;;5095238;28;20180;-50
2021/12/25 13:36:42;;;;;;;15.75;7.53;;;;;;;;;;5110259;28;20327;-49
2021/12/25 13:39:11;;;;;;;14.50;7.32;;;;;;;;;;5108658;28;20184;-49
2021/12/25 13:41:39;;;;;;;16.88;7.50;;;;;;;;;;5113811;28;20900;-50
2021/12/25 13:44:05;;;;;;;12.18;6.57;;;;;;;;;;5111311;28;20449;-50
2021/12/25 13:46:42;;;;;;;14.52;7.20;;;;;;;;;;5106002;28;20567;-50
2021/12/25 13:49:25;;;;;;;15.77;6.88;;;;;;;;;;5089336;28;20477;-50
2021/12/25 13:51:52;;;;;;;10.68;6.50;;;;;;;;;;5085878;28;20258;-50
2021/12/25 13:54:19;;;;;;;12.10;6.38;;;;;;;;;;5091190;28;20182;-50
2021/12/25 13:56:46;;;;;;;14.23;6.35;;;;;;;;;;5090464;28;20445;-50
2021/12/25 13:59:12;;;;;;;12.63;5.65;;;;;;;;;;5089502;28;20551;-50
2021/12/25 14:01:38;;;;;;;13.82;6.93;;;;;;;;;;5087229;28;20178;-50
2021/12/25 14:04:11;;;;;;;11.80;6.22;;;;;;;;;;5093286;28;20174;-50
2021/12/25 14:06:37;;;;;;;15.45;5.53;;;;;;;;;;5090171;28;20200;-49
2021/12/25 14:09:04;;;;;;;9.10;4.95;;;;;;;;;;5086539;28;20175;-50
2021/12/25 14:11:30;;;;;;;12.32;5.55;;;;;;;;;;5090685;28;20696;-50
2021/12/25 14:13:56;;;;;;;8.15;5.25;;;;;;;;;;5089237;28;20189;-50
2021/12/25 14:16:22;;;;;;;9.00;4.75;;;;;;;;;;5090068;28;20459;-50
2021/12/25 14:18:49;;;;;;;10.65;5.50;;;;;;;;;;5091959;28;20549;-50
2021/12/25 14:21:23;;;;;;;8.00;5.22;;;;;;;;;;5093594;28;20194;-50
2021/12/25 14:24:07;;;;;;;9.20;5.25;;;;;;;;;;5086192;28;20597;-50
2021/12/25 14:26:33;;;;;;;10.23;5.07;;;;;;;;;;5091513;28;20480;-50
2021/12/25 14:28:59;;;;;;;8.63;4.78;;;;;;;;;;5087250;28;20419;-50
2021/12/25 14:31:25;;;;;;;10.55;4.70;;;;;;;;;;5073274;28;20282;-50
2021/12/25 14:34:05;;;;;;;8.43;4.72;;;;;;;;;;5092634;28;20182;-49
2021/12/25 14:36:42;;;;;;;11.27;4.45;;;;;;;;;;5073527;28;20186;-50
2021/12/25 14:39:08;;;;;;;9.73;5.55;;;;;;;;;;5074313;28;20259;-49
2021/12/25 14:41:36;;;;;;;11.85;5.30;;;;;;;;;;5091743;28;20182;-50
2021/12/25 14:44:19;;;;;;;9.93;5.05;;;;;;;;;;5090911;28;20192;-50
2021/12/25 14:46:46;;;;;;;9.18;4.90;;;;;;;;;;5090001;28;20243;-50
2021/12/25 14:49:12;;;;;;;10.05;5.22;;;;;;;;;;5089395;28;20213;-49
2021/12/25 14:51:38;;;;;;;9.48;4.60;;;;;;;;;;5091793;28;20178;-49
2021/12/25 14:54:06;;;;;;;10.98;5.30;;;;;;;;;;5091902;28;20463;-49
2021/12/25 14:56:36;;;;;;;7.68;4.78;;;;;;;;;;5090035;28;20193;-49
2021/12/25 14:59:04;;;;;;;8.32;4.63;;;;;;;;;;5090699;28;20177;-50
2021/12/25 15:01:32;;;;;;;9.57;4.43;;;;;;;;;;5091766;28;20192;-50
2021/12/25 15:04:12;;;;;;;7.88;4.25;;;;;;;;;;5091581;28;20834;-50
2021/12/25 15:06:43;;;;;;;6.35;3.92;;;;;;;;;;5091661;28;20185;-50
2021/12/25 15:09:10;;;;;;;8.60;4.38;;;;;;;;;;5088397;28;20181;-50
2021/12/25 15:11:40;;;;;;;8.98;3.85;;;;;;;;;;5090156;28;20189;-49
2021/12/25 15:14:11;;;;;;;7.40;4.10;;;;;;;;;;5085849;28;20192;-50
2021/12/25 15:16:46;;;;;;;6.80;3.67;;;;;;;;;;5092955;28;20184;-50
2021/12/25 15:19:28;;;;;;;8.52;3.95;;;;;;;;;;5091290;28;20181;-50
2021/12/25 15:21:54;;;;;;;8.60;3.75;;;;;;;;;;5084135;28;20814;-49
2021/12/25 15:24:21;;;;;;;5.68;3.83;;;;;;;;;;5091808;28;20193;-50
2021/12/25 15:26:48;;;;;;;4.93;3.67;;;;;;;;;;5091720;28;20246;-50
2021/12/25 15:29:15;;;;;;;6.25;3.33;;;;;;;;;;5091427;28;20192;-50
2021/12/25 15:31:41;;;;;;;4.88;3.10;;;;;;;;;;5090669;28;20515;-50
2021/12/25 15:34:10;;;;;;;7.28;3.50;;;;;;;;;;5090140;28;20628;-50
2021/12/25 15:36:42;;;;;;;4.63;3.40;;;;;;;;;;5091233;28;20182;-50
2021/12/25 15:39:09;;;;;;;5.65;3.30;;;;;;;;;;5089018;28;20577;-50
2021/12/25 15:41:35;;;;;;;4.90;2.97;;;;;;;;;;5092277;28;20194;-50
2021/12/25 15:44:01;;;;;;;4.88;3.35;;;;;;;;;;5091993;28;20186;-49
2021/12/25 15:46:27;;;;;;;5.88;3.33;;;;;;;;;;5088723;28;20225;-50
2021/12/25 15:48:53;;;;;;;6.05;3.00;;;;;;;;;;5088432;28;20181;-50
2021/12/25 15:51:20;;;;;;;4.53;3.22;;;;;;;;;;5092343;28;20209;-50
2021/12/25 15:53:46;;;;;;;4.55;3.13;;;;;;;;;;5090032;28;20215;-50
2021/12/25 15:56:12;;;;;;;5.85;3.00;;;;;;;;;;5096315;28;20273;-50
2021/12/25 15:58:38;;;;;;;3.92;2.70;;;;;;;;;;5085989;28;20173;-49
2021/12/25 16:01:05;;;;;;;5.32;2.83;;;;;;;;;;5095553;28;20564;-50